M I D A S
Marine Information and Data Acquisition System
Tripno 295 of the Zeeleeuw from 2002-07-09 03:19:21 to 2002-07-09 13:30:00
Back to CruiseResearch ActivitiesStationsMapUnderway DataData graphs

EquipmentUnitsComment
TimeDGPSUTC
LatitudeDGPSDM.mWGS84
LongitudeDGPSDM.mWGS84
HeadingGyrodeg 
SOGDGPSknotsSpeed over ground
COGDGPSdegCourse over ground
DepthEcho soundermeters200 kHz
Missing or incorrect values are displayed as -999
Navigation data collected by the RV Zeeleeuw from 2002-07-09 03:19:21 to 2002-07-09 13:30:00
Time Latitude Longitude Heading SOG COG Depth
2002-07-09 03:20:23 51°14.397 2°54.991 311 10.7 306.8 10
2002-07-09 03:21:24 51°14.553 2°54.82 345 11.6 337.5 9.6
2002-07-09 03:22:24 51°14.74 2°54.676 338 13.2 331.3 9.3
2002-07-09 03:23:25 51°14.94 2°54.51 338.7 13.3 332.8 8.8
2002-07-09 03:24:24 51°15.133 2°54.353 337.2 13.4 331.7 8.4
2002-07-09 03:25:24 51°15.338 2°54.188 340.3 14 334.8 9
2002-07-09 03:26:24 51°15.548 2°54.014 339.3 14.3 333.1 9.9
2002-07-09 03:27:24 51°15.762 2°53.843 338.8 14.4 332.6 10.8
2002-07-09 03:28:24 51°15.972 2°53.658 334.2 14.5 328.3 11.3
2002-07-09 03:29:24 51°16.175 2°53.451 333.5 14.5 327.9 11.8
2002-07-09 03:30:24 51°16.38 2°53.248 333.2 14.5 327.8 12
2002-07-09 03:31:24 51°16.583 2°53.046 333.2 14.4 328.2 11.5
2002-07-09 03:32:24 51°16.786 2°52.846 333.7 14.2 328.5 9.3
2002-07-09 03:33:24 51°16.987 2°52.653 334 14.2 328.9 9.8
2002-07-09 03:34:25 51°17.199 2°52.47 336.5 14.3 331.5 9.7
2002-07-09 03:35:25 51°17.414 2°52.3 338.8 14.4 333.9 10
2002-07-09 03:36:25 51°17.632 2°52.14 340.5 14.4 335.6 10.2
2002-07-09 03:37:25 51°17.852 2°51.994 344.7 14.3 339.3 9.9
2002-07-09 03:38:24 51°18.073 2°51.865 346.5 14.4 340.8 10.4
2002-07-09 03:39:25 51°18.304 2°51.735 345.8 14.5 340.3 11.2
2002-07-09 03:40:24 51°18.528 2°51.613 349.3 14.4 343.5 12.6
2002-07-09 03:41:25 51°18.762 2°51.502 348.8 14.4 343.3 13.7
2002-07-09 03:42:24 51°18.987 2°51.391 348.3 14.4 342.8 14.4
2002-07-09 03:43:24 51°19.217 2°51.281 348.7 14.5 343.1 14.7
2002-07-09 03:44:24 51°19.45 2°51.171 349 14.5 343.4 14.5
2002-07-09 03:45:25 51°19.684 2°51.058 348.5 14.5 343 12.5
2002-07-09 03:46:24 51°19.912 2°50.945 349 14.5 343.2 12.3
2002-07-09 03:47:24 51°20.143 2°50.829 348.8 14.6 342.6 13.3
2002-07-09 03:48:24 51°20.377 2°50.714 348.7 14.7 342.9 15.6
2002-07-09 03:49:25 51°20.61 2°50.597 348.7 14.6 342.7 18.6
2002-07-09 03:50:24 51°20.836 2°50.484 348.8 14.5 343 21.5
2002-07-09 03:51:24 51°21.066 2°50.372 349.2 14.4 343.7 22.8
2002-07-09 03:52:24 51°21.297 2°50.264 348.7 14.5 343.7 22.7
2002-07-09 03:53:24 51°21.528 2°50.154 349 14.4 343.7 22
2002-07-09 03:54:24 51°21.761 2°50.057 350.7 14.4 345.6 21.6
2002-07-09 03:55:24 51°21.994 2°49.959 350.7 14.5 345.3 22.5
2002-07-09 03:56:24 51°22.227 2°49.859 350.3 14.5 344.6 22.6
2002-07-09 03:57:24 51°22.461 2°49.758 350.7 14.5 344.7 21.4
2002-07-09 03:58:24 51°22.69 2°49.658 351.2 14.3 345.1 15.8
2002-07-09 03:59:24 51°22.921 2°49.559 351.5 14.4 345.8 12.5
2002-07-09 04:00:24 51°23.154 2°49.459 350.5 14.5 344.8 17.9
2002-07-09 04:01:24 51°23.385 2°49.358 350.2 14.5 344.1 19.9
2002-07-09 04:02:23 51°23.614 2°49.259 350.7 14.4 344.8 22.1
2002-07-09 04:03:23 51°23.845 2°49.158 351 14.4 345.1 21.8
2002-07-09 04:04:24 51°24.082 2°49.055 350.5 14.5 344.9 22
2002-07-09 04:05:24 51°24.314 2°48.952 349.5 14.5 343.7 21.5
2002-07-09 04:06:24 51°24.545 2°48.845 349.7 14.5 343.6 17.9
2002-07-09 04:07:23 51°24.773 2°48.741 353.2 14.5 346.8 22.7
2002-07-09 04:08:23 51°25.009 2°48.686 0.2 14.4 354.3 24.9
2002-07-09 04:09:24 51°25.25 2°48.645 0.3 14.4 354.1 27.3
2002-07-09 04:10:25 51°25.491 2°48.602 359.7 14.3 353.4 24.8
2002-07-09 04:11:25 51°25.711 2°48.562   11.2 353.4 23.2
2002-07-09 04:12:24 51°25.843 2°48.548 9.3 6.6 0.2 23.4
2002-07-09 04:13:23 51°25.93 2°48.562 20.3 4.7 9.7 23.2
2002-07-09 04:14:24 51°25.999 2°48.588 26.8 3.9 15.2 23.3
2002-07-09 04:15:23 51°26.052 2°48.616 31.8 3.2 19.8 23.2
2002-07-09 04:16:24 51°26.097 2°48.644 36.2 2.8 22 22.9
2002-07-09 04:17:23 51°26.136 2°48.672 40.3 2.5 25.8 23.5
2002-07-09 04:18:24 51°26.172 2°48.702 43 2.3 27.8 23.4
2002-07-09 04:19:25 51°26.205 2°48.732 45.2 2.2 30 21.8
2002-07-09 04:20:25 51°26.236 2°48.761 47.3 2 31.1 23
2002-07-09 04:21:24 51°26.261 2°48.784 49.3 1.6 29.7 19.9
2002-07-09 04:22:24 51°26.282 2°48.803 51.2 1.3 29.3 23.3
2002-07-09 04:23:23 51°26.299 2°48.817 52.3 1.1 25.8 22
2002-07-09 04:24:24 51°26.315 2°48.828 54.3 0.9 24.5 20.4
2002-07-09 04:25:23 51°26.328 2°48.838 55.8 0.8 21 22.9
2002-07-09 04:26:24 51°26.34 2°48.845 57.8 0.7 19.2 21.9
2002-07-09 04:27:23 51°26.35 2°48.85 60 0.6 17.3 20.6
2002-07-09 04:28:24 51°26.359 2°48.855 63.2 0.6 19.1 18.6
2002-07-09 04:29:25 51°26.367 2°48.859 67 0.5 17.3 17.9
2002-07-09 04:30:23 51°26.374 2°48.863 65.2 0.5 26.7 20.5
2002-07-09 04:31:23 51°26.382 2°48.873 80 0.6 55.4 20.9
2002-07-09 04:32:24 51°26.384 2°48.888 100.5 0.6 94.5 20.8
2002-07-09 04:33:24 51°26.378 2°48.902 121.2 0.7 134.3 20.8
2002-07-09 04:34:23 51°26.366 2°48.91 143.3 0.9 169.9 20.4
2002-07-09 04:35:24 51°26.348 2°48.908 168.5 1.2 193.8 20.1
2002-07-09 04:36:23 51°26.328 2°48.892 192.5 1.5 214.9 22.7
2002-07-09 04:37:24 51°26.306 2°48.865 202 1.7 220.5 19.6
2002-07-09 04:38:24 51°26.283 2°48.832 205.5 1.9 223.2 22.6
2002-07-09 04:39:24 51°26.259 2°48.796 207.2 2 223.8 19.6
2002-07-09 04:40:24 51°26.233 2°48.757 209.3 2.1 223.6 23.2
2002-07-09 04:41:24 51°26.208 2°48.718 207.3 2 223.1 22
2002-07-09 04:42:23 51°26.186 2°48.683 205.7 1.8 225.1 23.3
2002-07-09 04:43:24 51°26.165 2°48.648 204.8 1.7 226.4 22
2002-07-09 04:44:23 51°26.147 2°48.617 205.3 1.6 228.8 22.9
2002-07-09 04:45:24 51°26.13 2°48.585 204.8 1.5 231.5 21.9
2002-07-09 04:46:23 51°26.115 2°48.555 205.3 1.6 229.3 22.7
2002-07-09 04:47:24 51°26.096 2°48.522 204.8 1.7 228.1 22.7
2002-07-09 04:48:24 51°26.076 2°48.489 204.7 1.8 226.9 22.2
2002-07-09 04:49:24 51°26.055 2°48.454 202 1.8 225.1 22.8
2002-07-09 04:50:24 51°26.02 2°48.44 148.8 3 164.3 22.4
2002-07-09 04:51:24 51°25.997 2°48.476 93.3 0.9 241.5 22.7
2002-07-09 04:52:25 51°25.99 2°48.454 82.5 0.7 239.1 -999
2002-07-09 04:53:25 51°25.986 2°48.442 72.3 0.4 243.1 -999
2002-07-09 04:54:25 51°25.985 2°48.434 55.7 0.3 291.1 22.8
2002-07-09 04:55:25 51°25.991 2°48.43 44 0.5 343.7 22.6
2002-07-09 04:56:24 51°26 2°48.43 53 0.6 14.5 22.6
2002-07-09 04:57:25 51°26.007 2°48.44 70.5 0.5 53 22.7
2002-07-09 04:58:25 51°26.012 2°48.451 64.7 0.5 45.2 22.7
2002-07-09 04:59:24 51°26.02 2°48.458 51.8 0.6 19.9 22.4
2002-07-09 05:00:24 51°26.029 2°48.459 43.3 0.6 353.7 21.7
2002-07-09 05:01:25 51°26.037 2°48.455 45.3 0.5 330.6 20.9
2002-07-09 05:02:24 51°26.041 2°48.447 54.2 0.4 297.3 21.7
2002-07-09 05:03:24 51°26.041 2°48.435 65.2 0.5 269.6 20.9
2002-07-09 05:04:24 51°26.04 2°48.419 75.3 0.6 257.6 21.4
2002-07-09 05:05:24 51°26.038 2°48.401 82.8 0.8 258.2 22
2002-07-09 05:06:25 51°26.036 2°48.383 88 0.4 250.1 22.3
2002-07-09 05:07:24 51°26.032 2°48.381 97.3 0.3 149.7 22.4
2002-07-09 05:08:24 51°26.025 2°48.39 103.8 0.7 136.2 22.4
2002-07-09 05:09:25 51°26.016 2°48.407 105.3 1 131.7 22.5
2002-07-09 05:10:24 51°26.005 2°48.428 104 1.1 127 22.5
2002-07-09 05:11:24 51°25.999 2°48.452 86 1 102.3 22.5
2002-07-09 05:12:25 51°25.996 2°48.477 86.7 0.9 100.7 22.7
2002-07-09 05:13:24 51°25.995 2°48.496 78 0.6 87.7 22.4
2002-07-09 05:14:25 51°25.996 2°48.508 72 0.4 75 22.3
2002-07-09 05:15:24 51°25.998 2°48.514 70.8 0.2 59.5 22.5
2002-07-09 05:16:24 51°25.999 2°48.516 71.8 0.1 355.8 22.4
2002-07-09 05:17:24 51°25.999 2°48.514 74.3 0.1 256 22.4
2002-07-09 05:18:24 51°25.997 2°48.51 78.2 0.2 239 22.3
2002-07-09 05:19:24 51°25.995 2°48.503 81.8 0.3 230.7 22.4
2002-07-09 05:20:25 51°25.99 2°48.495 84.2 0.4 234.2 22.5
2002-07-09 05:21:25 51°25.986 2°48.486 88.2 0.5 231.7 22.5
2002-07-09 05:22:24 51°25.98 2°48.475 91.8 0.5 228.2 22.6
2002-07-09 05:23:24 51°25.974 2°48.464 95 0.6 226.1 22.6
2002-07-09 05:24:25 51°25.968 2°48.452 98 0.6 227.2 22.6
2002-07-09 05:25:24 51°25.961 2°48.44 99.7 0.6 225.4 22.4
2002-07-09 05:26:25 51°25.954 2°48.431 97.5 0.5 212.7 22.4
2002-07-09 05:27:24 51°25.948 2°48.426 93.2 0.4 203.8 22.4
2002-07-09 05:28:25 51°25.942 2°48.423 87 0.3 191.3 22.6
2002-07-09 05:29:24 51°25.939 2°48.422 80.2 0.2 186.8 22.5
2002-07-09 05:30:24 51°25.937 2°48.422 68.3 0.1 67.1 22.5
2002-07-09 05:31:25 51°25.94 2°48.423 53.5 0.3 358 22.5
2002-07-09 05:32:24 51°25.947 2°48.422 45.7 0.5 355.7 22.4
2002-07-09 05:33:24 51°25.958 2°48.42 39 0.8 349.7 22.5
2002-07-09 05:34:25 51°25.971 2°48.418 40.5 0.8 358.3 22.5
2002-07-09 05:35:24 51°25.985 2°48.419 43 0.8 1.8 22.4
2002-07-09 05:36:25 51°25.995 2°48.419 52.7 0.5 6 22.4
2002-07-09 05:49:33 51°27.433 2°48.184 3.7 13.5 355.8 25.2
2002-07-09 05:51:14 51°27.809 2°48.137 3.7 13.4 355.8 35.5
2002-07-09 05:52:18 51°28.048 2°48.109 3.5 13.5 356.2 29.1
2002-07-09 05:53:34 51°28.333 2°48.078 3.2 13.5 355.6 29.1
2002-07-09 05:54:33 51°28.553 2°48.056 4 13.5 356.6 30.8
2002-07-09 06:44:02 51°34.818 2°47.453 81.5 0.6 170.5 32.9
2002-07-09 06:45:02 51°34.808 2°47.453 83.5 0.7 183.4 33.2
2002-07-09 06:46:02 51°34.798 2°47.449 78.3 0.5 189.8 33.9
2002-07-09 06:47:01 51°34.79 2°47.448 72 0.5 180.8 33.6
2002-07-09 06:48:02 51°34.782 2°47.45 65.7 0.4 168.2 33.8
2002-07-09 06:49:02 51°34.779 2°47.45 49.8 0.1 168.5 33.3
2002-07-09 06:50:02 51°34.782 2°47.449 39 0.3 339.2 33.8
2002-07-09 06:51:02 51°34.787 2°47.449 45.2 0.3 19.1 33.6
2002-07-09 06:52:01 51°34.79 2°47.455 52.8 0.4 64.9 33.5
2002-07-09 06:53:02 51°34.793 2°47.463 50.5 0.3 42.3 33.5
2002-07-09 06:54:02 51°34.799 2°47.468 38.7 0.4 13.5 33.5
2002-07-09 06:55:02 51°34.808 2°47.465 23.3 0.7 338.2 33
2002-07-09 06:56:02 51°34.821 2°47.455 16 1 331.5 32
2002-07-09 06:57:02 51°34.836 2°47.435 358.3 1.4 311.3 29.9
2002-07-09 06:58:02 51°34.849 2°47.405 2.5 1.3 310.4 30.5
2002-07-09 06:59:02 51°34.86 2°47.393 32.3 0.5 343.8 32
2002-07-09 07:00:02 51°34.863 2°47.396 59.2 0.2 105.2 32.1
2002-07-09 07:01:02 51°34.856 2°47.405 83.8 0.8 152.2 31.6
2002-07-09 07:02:02 51°34.841 2°47.414 101.5 1.1 162.5 30.8
2002-07-09 07:03:02 51°34.822 2°47.424 100.2 1.2 160.4 33.6
2002-07-09 07:04:02 51°34.808 2°47.435 81.7 0.8 146.2 34
2002-07-09 07:05:02 51°34.802 2°47.445 58.3 0.3 119.8 33.8
2002-07-09 07:06:02 51°34.802 2°47.449 42.7 0.2 33.6 33.8
2002-07-09 07:07:02 51°34.808 2°47.445 27.2 0.5 336.8 33.6
2002-07-09 07:08:02 51°34.818 2°47.442 32.5 0.7 355.5 32.8
2002-07-09 07:09:02 51°34.829 2°47.446 40.5 0.7 23.6 31.2
2002-07-09 07:10:02 51°34.837 2°47.456 45.2 0.6 35.3 29.4
2002-07-09 07:11:02 51°34.841 2°47.464 53 0.3 75 31.3
2002-07-09 07:12:02 51°34.839 2°47.468 58.7 0.2 164.7 31.1
2002-07-09 07:13:02 51°34.833 2°47.467 66.2 0.5 186.3 29.5
2002-07-09 07:14:02 51°34.843 2°47.557 81.2 8.6 82.2 32.3
2002-07-09 07:15:02 51°34.752 2°47.847 120 13.5 124.7 31.9
2002-07-09 07:16:02 51°34.622 2°48.149 120 13.7 124.5 27.4
2002-07-09 07:17:02 51°34.488 2°48.448 120.7 13.8 125.7 26.2
2002-07-09 07:18:02 51°34.355 2°48.744 120.5 13.7 125.6 25.5
2002-07-09 07:19:02 51°34.226 2°49.045 121.2 13.7 125.1 29.8
2002-07-09 07:20:02 51°34.092 2°49.339 121.5 13.6 125.9 32.8
2002-07-09 07:21:02 51°33.961 2°49.631 121.3 13.4 126.3 34.8
2002-07-09 07:22:02 51°33.831 2°49.92 120.2 13.3 125 34.5
2002-07-09 07:23:02 51°33.703 2°50.209 121 13.4 126.5 34.5
2002-07-09 07:24:02 51°33.575 2°50.5 118.8 13.3 124.1 31.6
2002-07-09 07:25:02 51°33.449 2°50.793 118.7 13.3 124.3 30.4
2002-07-09 07:26:02 51°33.323 2°51.089 119.3 13.5 124 34.2
2002-07-09 07:27:02 51°33.196 2°51.385 119.5 13.4 124 33.2
2002-07-09 07:28:02 51°33.062 2°51.674 125.5 13.6 130.2 31.1
2002-07-09 07:29:02 51°32.917 2°51.954 121.3 13.5 126.8 26.9
2002-07-09 07:30:02 51°32.788 2°52.25 120.5 13.6 125.6 25.9
2002-07-09 07:31:02 51°32.661 2°52.548 120.5 13.6 125.6 27.1
2002-07-09 07:32:02 51°32.534 2°52.846 119.8 13.5 125.1 22.2
2002-07-09 07:33:02 51°32.402 2°53.142 120.2 13.7 125.7 19.8
2002-07-09 07:34:01 51°32.274 2°53.434 120.8 13.6 125.2 21
2002-07-09 07:35:02 51°32.144 2°53.74 118.5 13.6 123 21.4
2002-07-09 07:36:02 51°32.019 2°54.046 118.7 13.6 122.7 21.9
2002-07-09 07:37:02 51°31.89 2°54.348 120.2 13.8 124.8 18.4
2002-07-09 07:38:02 51°31.762 2°54.654 119.8 13.8 124 20.4
2002-07-09 07:39:02 51°31.634 2°54.958 119.5 13.7 123.9 19.1
2002-07-09 07:40:02 51°31.508 2°55.266 120 13.8 123.6 18.9
2002-07-09 07:41:02 51°31.382 2°55.577 119 13.9 122.8 18.5
2002-07-09 07:42:02 51°31.257 2°55.89 118.8 13.9 122.5 18.9
2002-07-09 07:43:02 51°31.133 2°56.202 118.5 13.8 121.9 32.2